createdAt,value
2022-12-18T00:01:33.530Z,52.80
2022-12-18T00:04:35.058Z,53.20
2022-12-18T00:07:37.593Z,52.80
2022-12-18T00:10:38.943Z,52.80
2022-12-18T00:13:41.072Z,52.90
2022-12-18T00:16:44.751Z,53.00
2022-12-18T00:19:46.132Z,33.90
2022-12-18T00:22:48.110Z,52.90
2022-12-18T00:25:49.574Z,33.90
2022-12-18T00:28:51.998Z,34.20
2022-12-18T00:31:53.518Z,52.80
2022-12-18T00:34:54.774Z,33.40
2022-12-18T00:37:56.823Z,53.80
2022-12-18T00:40:58.509Z,53.90
2022-12-18T00:43:59.535Z,33.90
2022-12-18T00:47:00.943Z,53.00
2022-12-18T00:50:02.379Z,53.30
2022-12-18T00:53:04.487Z,53.40
2022-12-18T00:56:06.356Z,38.20
2022-12-18T00:59:07.742Z,34.20
2022-12-18T01:02:09.943Z,53.00
2022-12-18T01:05:13.357Z,49.30
2022-12-18T01:08:15.470Z,53.50
2022-12-18T01:11:20.074Z,53.00
2022-12-18T01:14:21.546Z,33.80
2022-12-18T01:17:22.953Z,34.00
2022-12-18T01:20:24.351Z,53.10
2022-12-18T01:23:26.323Z,33.90
2022-12-18T01:26:29.702Z,53.00
2022-12-18T01:29:32.153Z,52.70
2022-12-18T01:32:33.872Z,34.00
2022-12-18T01:35:41.253Z,53.10
2022-12-18T01:38:43.619Z,52.90
2022-12-18T01:42:00.698Z,52.90
2022-12-18T01:45:07.692Z,53.10
2022-12-18T01:48:09.551Z,33.80
2022-12-18T01:51:12.889Z,33.90
2022-12-18T01:54:14.878Z,53.10
2022-12-18T01:57:16.807Z,52.80
2022-12-18T02:00:21.319Z,34.10
2022-12-18T02:03:22.814Z,33.90
2022-12-18T02:06:29.366Z,51.90
2022-12-18T02:09:37.406Z,33.60
2022-12-18T02:12:45.486Z,53.10
2022-12-18T02:15:56.957Z,52.60
2022-12-18T02:19:04.399Z,52.80
2022-12-18T02:22:20.577Z,52.50
2022-12-18T02:25:39.962Z,53.10
2022-12-18T02:28:45.855Z,33.70
2022-12-18T02:31:52.912Z,52.60
2022-12-18T02:34:57.289Z,33.40
2022-12-18T02:38:00.724Z,33.70
2022-12-18T02:41:06.630Z,52.40
2022-12-18T02:44:10.879Z,52.90
2022-12-18T02:47:14.152Z,52.50
2022-12-18T02:50:23.557Z,52.80
2022-12-18T02:53:34.217Z,33.00
2022-12-18T02:56:44.435Z,53.00
2022-12-18T02:59:55.440Z,52.90
2022-12-18T03:03:03.412Z,33.90
2022-12-18T03:06:10.182Z,33.50
2022-12-18T03:09:16.187Z,52.70
2022-12-18T03:12:23.294Z,33.80
2022-12-18T03:15:29.490Z,53.20
2022-12-18T03:18:44.765Z,53.00
2022-12-18T03:21:50.054Z,53.20
2022-12-18T03:24:54.455Z,52.80
2022-12-18T03:27:59.217Z,34.00
2022-12-18T03:31:02.187Z,52.60
2022-12-18T03:34:09.481Z,53.50
2022-12-18T03:37:16.767Z,52.80
2022-12-18T03:40:20.519Z,53.00
2022-12-18T03:43:35.778Z,52.90
2022-12-18T03:46:46.373Z,53.00
2022-12-18T03:49:54.312Z,53.00
2022-12-18T03:53:06.430Z,53.00
2022-12-18T03:56:10.454Z,34.00
2022-12-18T03:59:17.424Z,53.10
2022-12-18T04:02:21.555Z,47.30
2022-12-18T04:05:26.576Z,53.30
2022-12-18T04:08:29.335Z,53.40
2022-12-18T04:11:37.303Z,34.10
2022-12-18T04:14:40.262Z,53.30
2022-12-18T04:17:48.637Z,53.20
2022-12-18T04:20:52.400Z,53.40
2022-12-18T04:23:54.415Z,53.60
2022-12-18T04:26:57.575Z,53.60
2022-12-18T04:30:03.490Z,53.30
2022-12-18T04:33:10.329Z,53.50
2022-12-18T04:36:12.992Z,53.70
2022-12-18T04:39:19.942Z,53.40
2022-12-18T04:42:23.971Z,53.30
2022-12-18T04:45:25.441Z,53.20
2022-12-18T04:48:27.295Z,34.50
2022-12-18T04:51:28.656Z,53.30
2022-12-18T04:54:30.059Z,53.50
2022-12-18T04:57:31.418Z,53.50
2022-12-18T05:00:32.880Z,53.20
2022-12-18T05:03:36.541Z,53.10
2022-12-18T05:06:38.011Z,53.50
2022-12-18T05:09:39.450Z,53.20
2022-12-18T05:12:55.488Z,53.30
2022-12-18T05:15:57.555Z,53.30
2022-12-18T05:18:59.545Z,34.50
2022-12-18T05:22:01.594Z,53.70
2022-12-18T05:25:03.130Z,53.40
2022-12-18T05:28:04.496Z,34.60
2022-12-18T05:31:06.117Z,53.90
2022-12-18T05:34:08.112Z,34.20
2022-12-18T05:37:09.480Z,53.70
2022-12-18T05:40:12.238Z,53.80
2022-12-18T05:43:19.385Z,53.70
2022-12-18T05:46:22.669Z,54.00
2022-12-18T05:49:24.740Z,54.00
2022-12-18T05:52:26.129Z,53.80
2022-12-18T05:58:29.493Z,53.80
2022-12-18T06:01:30.775Z,34.80
2022-12-18T06:04:33.262Z,54.00
2022-12-18T06:16:40.749Z,54.20
2022-12-18T06:19:42.591Z,35.30
2022-12-18T06:31:49.406Z,54.30
2022-12-18T06:34:51.442Z,34.90
2022-12-18T06:37:52.728Z,35.50
2022-12-18T06:40:54.220Z,54.50
2022-12-18T06:43:59.593Z,54.50
2022-12-18T06:47:01.499Z,54.50
2022-12-18T06:50:03.509Z,35.50
2022-12-18T06:53:04.727Z,36.00
2022-12-18T06:56:10.590Z,54.80
2022-12-18T06:59:13.403Z,54.80
2022-12-18T07:02:14.881Z,54.90
2022-12-18T07:05:16.953Z,35.60
2022-12-18T07:08:18.179Z,36.40
2022-12-18T07:11:20.459Z,54.80
2022-12-18T07:14:21.829Z,55.10
2022-12-18T07:17:23.205Z,55.30
2022-12-18T07:20:25.225Z,35.80
2022-12-18T07:23:26.641Z,55.30
2022-12-18T07:26:28.017Z,55.30
2022-12-18T07:29:30.106Z,36.30
2022-12-18T07:32:31.483Z,55.20
2022-12-18T07:35:34.216Z,55.30
2022-12-18T07:38:36.047Z,55.70
2022-12-18T07:41:40.211Z,36.50
2022-12-18T07:44:44.033Z,55.70
2022-12-18T07:47:45.431Z,55.80
2022-12-18T07:50:47.498Z,55.50
2022-12-18T07:53:49.574Z,55.50
2022-12-18T07:56:53.810Z,55.80
2022-12-18T07:59:55.217Z,55.90
2022-12-18T08:02:56.807Z,55.80
2022-12-18T08:06:00.650Z,36.80
2022-12-18T08:09:02.042Z,56.00
2022-12-18T08:12:03.919Z,36.90
2022-12-18T08:15:06.080Z,56.40
2022-12-18T08:18:11.436Z,56.40
2022-12-18T08:21:18.451Z,56.50
2022-12-18T08:24:19.834Z,56.60
2022-12-18T08:27:29.332Z,56.80
2022-12-18T08:30:31.367Z,56.90
2022-12-18T08:33:33.305Z,57.20
2022-12-18T08:36:35.723Z,57.00
2022-12-18T08:39:37.150Z,57.00
2022-12-18T08:42:52.820Z,57.20
2022-12-18T08:45:54.369Z,57.50
2022-12-18T08:48:55.983Z,38.30
2022-12-18T08:51:57.961Z,57.10
2022-12-18T08:54:59.360Z,57.20
2022-12-18T08:58:00.766Z,57.80
2022-12-18T09:01:03.343Z,57.60
2022-12-18T09:04:04.934Z,57.70
2022-12-18T09:07:09.230Z,57.80
2022-12-18T09:10:10.685Z,38.80
2022-12-18T09:13:12.804Z,57.90
2022-12-18T09:16:15.527Z,57.90
2022-12-18T09:19:17.456Z,58.20
2022-12-18T09:22:19.443Z,57.30
2022-12-18T09:25:20.806Z,58.30
2022-12-18T09:31:24.919Z,38.50
2022-12-18T09:34:26.329Z,55.70
2022-12-18T09:37:28.377Z,38.60
2022-12-18T09:40:36.590Z,58.70
2022-12-18T09:43:45.825Z,58.90
2022-12-18T09:46:55.063Z,58.80
2022-12-18T09:50:01.421Z,58.80
2022-12-18T09:53:08.291Z,58.80
2022-12-18T09:56:16.288Z,59.00
2022-12-18T09:59:23.978Z,59.00
2022-12-18T10:02:27.171Z,59.10
2022-12-18T10:05:37.790Z,59.20
2022-12-18T10:08:46.768Z,59.40
2022-12-18T10:11:57.445Z,59.40
2022-12-18T10:15:04.896Z,59.60
2022-12-18T10:18:22.178Z,59.60
2022-12-18T10:21:30.760Z,59.60
2022-12-18T10:24:39.596Z,59.60
2022-12-18T10:27:41.353Z,59.40
2022-12-18T10:30:43.871Z,59.80
2022-12-18T10:33:45.812Z,59.70
2022-12-18T10:36:48.801Z,59.90
2022-12-18T10:40:14.292Z,60.10
2022-12-18T10:43:23.506Z,60.00
2022-12-18T10:46:25.052Z,45.40
2022-12-18T10:49:27.237Z,41.00
2022-12-18T10:52:28.728Z,49.20
2022-12-18T10:55:34.226Z,60.50
2022-12-18T10:58:37.741Z,60.20
2022-12-18T11:01:48.937Z,60.40
2022-12-18T11:04:52.405Z,60.40
2022-12-18T11:07:54.543Z,60.50
2022-12-18T11:10:56.756Z,61.00
2022-12-18T11:14:02.706Z,60.60
2022-12-18T11:20:32.255Z,61.30
2022-12-18T11:23:35.027Z,60.80
2022-12-18T11:26:37.346Z,60.90
2022-12-18T11:29:44.910Z,61.00
2022-12-18T11:32:49.190Z,61.10
2022-12-18T11:35:53.322Z,61.10
2022-12-18T11:38:57.902Z,61.30
2022-12-18T11:42:12.584Z,61.10
2022-12-18T11:45:28.203Z,61.20
2022-12-18T11:48:33.774Z,61.30
2022-12-18T11:51:39.270Z,61.30
2022-12-18T11:54:40.701Z,61.50
2022-12-18T11:57:51.707Z,61.10
2022-12-18T12:00:59.970Z,61.50
2022-12-18T12:04:16.383Z,61.90
2022-12-18T12:07:25.899Z,61.90
2022-12-18T12:10:42.222Z,61.60
2022-12-18T12:14:03.702Z,61.90
2022-12-18T12:17:11.148Z,62.20
2022-12-18T12:20:20.941Z,62.50
2022-12-18T12:23:32.633Z,62.20
2022-12-18T12:26:39.372Z,62.30
2022-12-18T12:29:52.292Z,62.20
2022-12-18T12:33:04.818Z,62.30
2022-12-18T12:36:14.552Z,62.80
2022-12-18T12:39:22.053Z,62.50
2022-12-18T12:42:43.168Z,62.30
2022-12-18T12:45:51.114Z,62.50
2022-12-18T12:48:55.396Z,43.50
2022-12-18T12:52:01.362Z,62.60
2022-12-18T12:55:13.066Z,62.70
2022-12-18T12:58:25.706Z,63.10
2022-12-18T13:01:37.579Z,63.20
2022-12-18T13:04:47.491Z,63.10
2022-12-18T13:07:54.195Z,63.30
2022-12-18T13:11:13.258Z,63.70
2022-12-18T13:14:22.884Z,63.70
2022-12-18T13:17:31.539Z,63.50
2022-12-18T13:20:34.972Z,63.80
2022-12-18T13:23:37.508Z,63.80
2022-12-18T13:26:39.059Z,64.10
2022-12-18T13:29:43.188Z,64.00
2022-12-18T13:32:45.107Z,64.20
2022-12-18T13:35:54.999Z,64.20
2022-12-18T13:39:26.692Z,64.00
2022-12-18T13:42:53.239Z,64.10
2022-12-18T13:46:05.994Z,64.60
2022-12-18T13:49:22.690Z,64.60
2022-12-18T13:52:28.128Z,64.60
2022-12-18T13:55:29.682Z,64.50
2022-12-18T13:58:31.068Z,45.10
2022-12-18T14:01:32.948Z,64.40
2022-12-18T14:04:36.026Z,63.90
2022-12-18T14:07:50.361Z,64.50
2022-12-18T14:10:53.327Z,44.60
2022-12-18T14:13:55.003Z,64.80
2022-12-18T14:16:57.111Z,59.00
2022-12-18T14:20:00.572Z,64.90
2022-12-18T14:23:02.220Z,65.60
2022-12-18T14:26:20.594Z,65.60
2022-12-18T14:29:25.110Z,65.60
2022-12-18T14:32:26.598Z,66.00
2022-12-18T14:35:28.552Z,46.10
2022-12-18T14:38:31.244Z,66.20
2022-12-18T14:47:56.457Z,43.50
2022-12-18T14:51:01.210Z,66.40
2022-12-18T14:54:04.934Z,66.70
2022-12-18T14:57:21.222Z,66.80
2022-12-18T15:00:24.902Z,66.70
2022-12-18T15:03:26.443Z,67.10
2022-12-18T15:06:32.300Z,67.10
2022-12-18T15:09:33.972Z,67.60
2022-12-18T15:12:36.939Z,67.90
2022-12-18T15:15:48.528Z,56.20
2022-12-18T15:18:50.058Z,67.20
2022-12-18T15:21:52.107Z,67.60
2022-12-18T15:24:54.808Z,67.50
2022-12-18T15:27:56.303Z,68.20
2022-12-18T15:30:59.549Z,48.40
2022-12-18T15:34:10.197Z,67.80
2022-12-18T15:37:12.136Z,67.80
2022-12-18T15:40:15.194Z,68.50
2022-12-18T15:43:39.547Z,68.40
2022-12-18T15:46:41.193Z,68.50
2022-12-18T15:49:42.606Z,68.30
2022-12-18T15:52:46.805Z,68.50
2022-12-18T15:56:02.897Z,51.50
2022-12-18T15:59:11.515Z,69.10
2022-12-18T16:02:17.647Z,68.60
2022-12-18T16:05:22.047Z,69.00
2022-12-18T16:08:24.082Z,68.90
2022-12-18T16:11:38.197Z,69.50
2022-12-18T16:14:39.652Z,69.40
2022-12-18T16:17:41.461Z,69.20
2022-12-18T16:20:43.006Z,69.30
2022-12-18T16:23:44.944Z,49.70
2022-12-18T16:26:46.392Z,69.70
2022-12-18T16:29:48.517Z,58.60
2022-12-18T16:32:50.485Z,69.60
2022-12-18T16:35:52.872Z,69.60
2022-12-18T16:38:54.902Z,69.80
2022-12-18T16:41:56.867Z,69.90
2022-12-18T16:44:59.662Z,70.20
2022-12-18T16:48:00.929Z,50.30
2022-12-18T16:51:04.325Z,69.90
2022-12-18T16:54:10.923Z,70.00
2022-12-18T16:57:15.722Z,70.20
2022-12-18T17:00:17.858Z,70.30
2022-12-18T17:03:19.345Z,70.40
2022-12-18T17:06:20.994Z,50.70
2022-12-18T17:09:24.473Z,70.50
2022-12-18T17:12:26.537Z,70.60
2022-12-18T17:15:27.941Z,70.80
2022-12-18T17:18:29.352Z,71.10
2022-12-18T17:21:31.009Z,70.80
2022-12-18T17:24:35.343Z,71.30
2022-12-18T17:27:37.090Z,67.30
2022-12-18T17:30:38.396Z,51.20
2022-12-18T17:33:42.773Z,71.30
2022-12-18T17:36:44.853Z,71.50
2022-12-18T17:39:46.842Z,71.70
2022-12-18T17:42:51.783Z,71.70
2022-12-18T17:45:53.419Z,72.00
2022-12-18T17:48:58.775Z,71.90
2022-12-18T17:52:00.260Z,72.10
2022-12-18T17:55:02.163Z,52.20
2022-12-18T17:58:03.518Z,52.70
2022-12-18T18:01:06.202Z,71.80
2022-12-18T18:04:07.719Z,72.40
2022-12-18T18:07:09.290Z,72.10
2022-12-18T18:10:11.302Z,52.20
2022-12-18T18:13:37.816Z,52.90
2022-12-18T18:16:43.210Z,72.30
2022-12-18T18:19:46.794Z,72.40
2022-12-18T18:22:51.311Z,72.80
2022-12-18T18:25:53.313Z,72.80
2022-12-18T18:28:55.252Z,72.80
2022-12-18T18:31:57.415Z,72.70
2022-12-18T18:34:58.853Z,73.10
2022-12-18T18:38:00.730Z,72.70
2022-12-18T18:41:04.406Z,73.00
2022-12-18T18:44:06.198Z,73.40
2022-12-18T18:47:09.640Z,73.20
2022-12-18T18:50:12.156Z,73.20
2022-12-18T18:56:56.352Z,52.70
2022-12-18T18:59:39.716Z,73.30
2022-12-18T19:02:41.271Z,53.50
2022-12-18T19:05:45.994Z,73.00
2022-12-18T19:08:49.431Z,73.40
2022-12-18T19:12:03.300Z,73.30
2022-12-18T19:15:06.012Z,67.00
2022-12-18T19:21:10.654Z,74.10
2022-12-18T19:24:12.100Z,74.00
2022-12-18T19:27:14.227Z,73.80
2022-12-18T19:30:16.168Z,74.40
2022-12-18T19:33:41.712Z,74.40
2022-12-18T19:36:39.661Z,74.60
2022-12-18T19:39:41.045Z,74.60
2022-12-18T19:42:43.100Z,74.80
2022-12-18T19:45:44.499Z,74.80
2022-12-18T19:48:46.867Z,74.90
2022-12-18T19:51:50.407Z,75.10
2022-12-18T19:54:52.801Z,75.10
2022-12-18T19:57:56.219Z,75.10
2022-12-18T20:00:57.687Z,75.40
2022-12-18T20:03:59.734Z,55.60
2022-12-18T20:07:02.632Z,74.90
2022-12-18T20:10:08.897Z,55.30
2022-12-18T20:13:11.433Z,55.10
2022-12-18T20:16:13.191Z,75.30
2022-12-18T20:22:17.664Z,75.90
2022-12-18T20:25:19.092Z,75.70
2022-12-18T20:28:22.254Z,75.60
2022-12-18T20:31:23.849Z,76.00
2022-12-18T20:34:25.483Z,75.80
2022-12-18T20:37:27.600Z,76.20
2022-12-18T20:40:29.857Z,76.40
2022-12-18T20:43:32.832Z,55.80
2022-12-18T20:46:34.323Z,76.60
2022-12-18T20:55:42.358Z,55.70
2022-12-18T20:58:44.871Z,77.10
2022-12-18T21:01:48.803Z,56.80
2022-12-18T21:04:50.832Z,77.00
2022-12-18T21:07:52.091Z,56.90
2022-12-18T21:10:54.269Z,71.30
2022-12-18T21:13:57.836Z,56.50
2022-12-18T21:17:01.098Z,56.40
2022-12-18T21:23:15.622Z,77.20
2022-12-18T21:26:20.373Z,56.50
2022-12-18T21:29:24.493Z,77.30
2022-12-18T21:32:26.157Z,77.30
2022-12-18T21:35:32.215Z,77.30
2022-12-18T21:38:33.919Z,78.20
2022-12-18T21:44:54.543Z,77.40
2022-12-18T21:47:55.939Z,77.30
2022-12-18T21:50:57.381Z,77.00
2022-12-18T21:53:59.408Z,77.00
2022-12-18T21:57:02.361Z,77.00
2022-12-18T22:00:05.841Z,77.10
2022-12-18T22:03:18.555Z,76.90
2022-12-18T22:09:24.981Z,56.10
2022-12-18T22:12:43.690Z,77.30
2022-12-18T22:15:46.795Z,77.10
2022-12-18T22:18:48.282Z,77.10
2022-12-18T22:21:50.191Z,76.70
2022-12-18T22:28:03.402Z,76.80
2022-12-18T22:31:05.808Z,56.00
2022-12-18T22:34:07.909Z,55.90
2022-12-18T22:37:10.935Z,76.80
2022-12-18T22:40:23.679Z,76.50
2022-12-18T22:46:30.239Z,76.70
2022-12-18T22:55:37.140Z,76.80
2022-12-18T22:58:38.684Z,77.00
2022-12-18T23:01:41.273Z,56.20
2022-12-18T23:04:44.372Z,77.20
2022-12-18T23:07:45.829Z,76.80
2022-12-18T23:10:47.216Z,76.90
2022-12-18T23:13:48.593Z,77.00
2022-12-18T23:16:50.795Z,61.30
2022-12-18T23:19:54.548Z,77.30
2022-12-18T23:22:55.995Z,77.40
2022-12-18T23:26:01.689Z,75.00
2022-12-18T23:29:03.855Z,77.30
2022-12-18T23:32:06.183Z,77.50
2022-12-18T23:35:07.980Z,77.50
2022-12-18T23:38:11.408Z,77.80
2022-12-18T23:41:15.754Z,56.90
2022-12-18T23:44:17.114Z,77.80
2022-12-18T23:47:19.178Z,77.80
2022-12-18T23:50:27.166Z,77.90
2022-12-18T23:53:31.222Z,77.90
2022-12-18T23:56:34.857Z,78.10
2022-12-18T23:59:36.247Z,68.70
